sensor_id;sensor_type;location;lat;lon;timestamp;P1;durP1;ratioP1;P2;durP2;ratioP2
42364;SDS011;28498;54.400;18.566;2023-01-19T00:00:51;20.77;;;11.27;;
42364;SDS011;28498;54.400;18.566;2023-01-19T00:03:18;22.92;;;9.70;;
42364;SDS011;28498;54.400;18.566;2023-01-19T00:05:45;19.13;;;9.82;;
42364;SDS011;28498;54.400;18.566;2023-01-19T00:08:12;21.00;;;9.90;;
42364;SDS011;28498;54.400;18.566;2023-01-19T00:10:44;23.83;;;10.63;;
42364;SDS011;28498;54.400;18.566;2023-01-19T00:13:12;24.90;;;10.75;;
42364;SDS011;28498;54.400;18.566;2023-01-19T00:15:40;22.80;;;10.60;;
42364;SDS011;28498;54.400;18.566;2023-01-19T00:18:07;18.90;;;9.45;;
42364;SDS011;28498;54.400;18.566;2023-01-19T00:20:36;24.13;;;11.38;;
42364;SDS011;28498;54.400;18.566;2023-01-19T00:23:04;25.00;;;11.25;;
42364;SDS011;28498;54.400;18.566;2023-01-19T00:25:33;24.40;;;11.05;;
42364;SDS011;28498;54.400;18.566;2023-01-19T00:28:01;25.77;;;10.82;;
42364;SDS011;28498;54.400;18.566;2023-01-19T00:30:28;20.08;;;10.75;;
42364;SDS011;28498;54.400;18.566;2023-01-19T00:32:55;24.30;;;11.65;;
42364;SDS011;28498;54.400;18.566;2023-01-19T00:35:23;25.13;;;11.68;;
42364;SDS011;28498;54.400;18.566;2023-01-19T00:37:50;24.40;;;12.07;;
42364;SDS011;28498;54.400;18.566;2023-01-19T00:40:17;21.85;;;11.57;;
42364;SDS011;28498;54.400;18.566;2023-01-19T00:42:44;26.40;;;12.15;;
42364;SDS011;28498;54.400;18.566;2023-01-19T00:45:14;25.50;;;12.38;;
42364;SDS011;28498;54.400;18.566;2023-01-19T00:47:43;29.77;;;13.73;;
42364;SDS011;28498;54.400;18.566;2023-01-19T00:50:12;29.27;;;13.45;;
42364;SDS011;28498;54.400;18.566;2023-01-19T00:52:42;28.92;;;14.00;;
42364;SDS011;28498;54.400;18.566;2023-01-19T00:55:11;23.38;;;12.80;;
42364;SDS011;28498;54.400;18.566;2023-01-19T00:57:39;24.60;;;12.38;;
42364;SDS011;28498;54.400;18.566;2023-01-19T01:00:08;29.40;;;13.52;;
42364;SDS011;28498;54.400;18.566;2023-01-19T01:02:41;25.80;;;13.40;;
42364;SDS011;28498;54.400;18.566;2023-01-19T01:05:10;25.88;;;13.32;;
42364;SDS011;28498;54.400;18.566;2023-01-19T01:07:38;34.40;;;15.02;;
42364;SDS011;28498;54.400;18.566;2023-01-19T01:10:12;28.45;;;14.55;;
42364;SDS011;28498;54.400;18.566;2023-01-19T01:12:44;26.48;;;13.70;;
42364;SDS011;28498;54.400;18.566;2023-01-19T01:15:24;26.83;;;13.10;;
42364;SDS011;28498;54.400;18.566;2023-01-19T01:17:53;26.40;;;12.85;;
42364;SDS011;28498;54.400;18.566;2023-01-19T01:20:22;32.35;;;15.43;;
42364;SDS011;28498;54.400;18.566;2023-01-19T01:22:52;29.27;;;13.55;;
42364;SDS011;28498;54.400;18.566;2023-01-19T01:25:20;33.03;;;13.65;;
42364;SDS011;28498;54.400;18.566;2023-01-19T01:27:48;32.33;;;15.50;;
42364;SDS011;28498;54.400;18.566;2023-01-19T01:30:16;34.85;;;15.35;;
42364;SDS011;28498;54.400;18.566;2023-01-19T01:32:43;32.80;;;14.18;;
42364;SDS011;28498;54.400;18.566;2023-01-19T01:35:10;29.75;;;14.35;;
42364;SDS011;28498;54.400;18.566;2023-01-19T01:37:38;32.38;;;13.63;;
42364;SDS011;28498;54.400;18.566;2023-01-19T01:40:05;29.30;;;13.90;;
42364;SDS011;28498;54.400;18.566;2023-01-19T01:42:33;26.42;;;12.55;;
42364;SDS011;28498;54.400;18.566;2023-01-19T01:45:02;29.10;;;14.13;;
42364;SDS011;28498;54.400;18.566;2023-01-19T01:47:42;31.08;;;13.98;;
42364;SDS011;28498;54.400;18.566;2023-01-19T01:50:15;33.60;;;14.07;;
42364;SDS011;28498;54.400;18.566;2023-01-19T01:53:02;27.02;;;13.27;;
42364;SDS011;28498;54.400;18.566;2023-01-19T01:55:34;26.80;;;12.45;;
42364;SDS011;28498;54.400;18.566;2023-01-19T01:58:05;27.80;;;14.00;;
42364;SDS011;28498;54.400;18.566;2023-01-19T02:00:35;23.33;;;11.80;;
42364;SDS011;28498;54.400;18.566;2023-01-19T02:03:22;28.75;;;13.07;;
42364;SDS011;28498;54.400;18.566;2023-01-19T02:05:50;26.90;;;13.68;;
42364;SDS011;28498;54.400;18.566;2023-01-19T02:08:33;25.77;;;13.13;;
42364;SDS011;28498;54.400;18.566;2023-01-19T02:11:34;28.95;;;14.23;;
42364;SDS011;28498;54.400;18.566;2023-01-19T02:14:20;27.73;;;13.13;;
42364;SDS011;28498;54.400;18.566;2023-01-19T02:16:47;31.02;;;12.43;;
42364;SDS011;28498;54.400;18.566;2023-01-19T02:19:21;25.90;;;12.80;;
42364;SDS011;28498;54.400;18.566;2023-01-19T02:24:29;24.33;;;11.50;;
42364;SDS011;28498;54.400;18.566;2023-01-19T02:26:57;22.38;;;11.35;;
42364;SDS011;28498;54.400;18.566;2023-01-19T02:29:25;25.48;;;11.30;;
42364;SDS011;28498;54.400;18.566;2023-01-19T02:31:53;22.55;;;10.73;;
42364;SDS011;28498;54.400;18.566;2023-01-19T02:34:22;19.50;;;9.68;;
42364;SDS011;28498;54.400;18.566;2023-01-19T02:39:32;22.25;;;10.07;;
42364;SDS011;28498;54.400;18.566;2023-01-19T02:42:14;23.15;;;9.30;;
42364;SDS011;28498;54.400;18.566;2023-01-19T02:44:47;20.33;;;9.73;;
42364;SDS011;28498;54.400;18.566;2023-01-19T02:47:15;18.17;;;8.90;;
42364;SDS011;28498;54.400;18.566;2023-01-19T02:49:42;19.38;;;8.77;;
42364;SDS011;28498;54.400;18.566;2023-01-19T02:52:13;16.95;;;8.30;;
42364;SDS011;28498;54.400;18.566;2023-01-19T02:55:03;17.50;;;8.88;;
42364;SDS011;28498;54.400;18.566;2023-01-19T03:12:08;21.33;;;8.52;;
42364;SDS011;28498;54.400;18.566;2023-01-19T03:14:48;19.13;;;8.20;;
42364;SDS011;28498;54.400;18.566;2023-01-19T03:17:17;17.27;;;7.88;;
42364;SDS011;28498;54.400;18.566;2023-01-19T03:19:45;19.27;;;8.68;;
42364;SDS011;28498;54.400;18.566;2023-01-19T03:22:17;15.38;;;7.68;;
42364;SDS011;28498;54.400;18.566;2023-01-19T03:24:48;15.50;;;8.20;;
42364;SDS011;28498;54.400;18.566;2023-01-19T03:27:25;19.17;;;7.60;;
42364;SDS011;28498;54.400;18.566;2023-01-19T03:30:00;14.70;;;6.93;;
42364;SDS011;28498;54.400;18.566;2023-01-19T03:32:34;14.38;;;6.28;;
42364;SDS011;28498;54.400;18.566;2023-01-19T03:35:08;13.32;;;6.05;;
42364;SDS011;28498;54.400;18.566;2023-01-19T03:37:39;14.52;;;5.80;;
42364;SDS011;28498;54.400;18.566;2023-01-19T03:40:10;19.42;;;6.38;;
42364;SDS011;28498;54.400;18.566;2023-01-19T03:42:38;16.42;;;6.25;;
42364;SDS011;28498;54.400;18.566;2023-01-19T03:45:06;12.88;;;6.43;;
42364;SDS011;28498;54.400;18.566;2023-01-19T03:47:34;13.07;;;6.93;;
42364;SDS011;28498;54.400;18.566;2023-01-19T03:50:02;14.73;;;6.57;;
42364;SDS011;28498;54.400;18.566;2023-01-19T03:52:33;15.23;;;8.00;;
42364;SDS011;28498;54.400;18.566;2023-01-19T03:55:00;13.98;;;6.38;;
42364;SDS011;28498;54.400;18.566;2023-01-19T03:57:27;14.98;;;7.55;;
42364;SDS011;28498;54.400;18.566;2023-01-19T03:59:54;13.02;;;6.72;;
42364;SDS011;28498;54.400;18.566;2023-01-19T04:02:22;15.38;;;7.43;;
42364;SDS011;28498;54.400;18.566;2023-01-19T04:04:50;18.30;;;6.85;;
42364;SDS011;28498;54.400;18.566;2023-01-19T04:07:17;16.02;;;6.38;;
42364;SDS011;28498;54.400;18.566;2023-01-19T04:09:44;13.35;;;6.95;;
42364;SDS011;28498;54.400;18.566;2023-01-19T04:12:10;12.23;;;5.88;;
42364;SDS011;28498;54.400;18.566;2023-01-19T04:14:37;12.27;;;6.07;;
42364;SDS011;28498;54.400;18.566;2023-01-19T04:17:04;14.82;;;5.70;;
42364;SDS011;28498;54.400;18.566;2023-01-19T04:19:31;14.00;;;6.25;;
42364;SDS011;28498;54.400;18.566;2023-01-19T04:21:58;12.25;;;6.65;;
42364;SDS011;28498;54.400;18.566;2023-01-19T04:24:27;13.27;;;6.45;;
42364;SDS011;28498;54.400;18.566;2023-01-19T04:26:54;13.77;;;6.45;;
42364;SDS011;28498;54.400;18.566;2023-01-19T04:29:21;10.60;;;5.93;;
42364;SDS011;28498;54.400;18.566;2023-01-19T04:31:49;11.73;;;5.72;;
42364;SDS011;28498;54.400;18.566;2023-01-19T04:34:16;10.13;;;5.85;;
42364;SDS011;28498;54.400;18.566;2023-01-19T04:36:43;16.05;;;6.65;;
42364;SDS011;28498;54.400;18.566;2023-01-19T04:39:11;12.98;;;6.25;;
42364;SDS011;28498;54.400;18.566;2023-01-19T04:41:38;13.43;;;6.05;;
42364;SDS011;28498;54.400;18.566;2023-01-19T04:44:05;13.93;;;6.53;;
42364;SDS011;28498;54.400;18.566;2023-01-19T04:46:32;12.73;;;6.40;;
42364;SDS011;28498;54.400;18.566;2023-01-19T04:49:00;14.05;;;6.07;;
42364;SDS011;28498;54.400;18.566;2023-01-19T04:51:27;13.13;;;6.18;;
42364;SDS011;28498;54.400;18.566;2023-01-19T04:53:54;15.50;;;6.57;;
42364;SDS011;28498;54.400;18.566;2023-01-19T04:56:22;13.23;;;6.22;;
42364;SDS011;28498;54.400;18.566;2023-01-19T04:58:49;16.58;;;6.93;;
42364;SDS011;28498;54.400;18.566;2023-01-19T05:01:16;12.52;;;6.28;;
42364;SDS011;28498;54.400;18.566;2023-01-19T05:03:43;14.65;;;7.15;;
42364;SDS011;28498;54.400;18.566;2023-01-19T05:06:10;16.65;;;6.93;;
42364;SDS011;28498;54.400;18.566;2023-01-19T05:08:38;11.75;;;5.53;;
42364;SDS011;28498;54.400;18.566;2023-01-19T05:11:05;14.93;;;5.97;;
42364;SDS011;28498;54.400;18.566;2023-01-19T05:13:32;11.73;;;6.32;;
42364;SDS011;28498;54.400;18.566;2023-01-19T05:15:59;13.35;;;6.25;;
42364;SDS011;28498;54.400;18.566;2023-01-19T05:18:27;14.07;;;6.35;;
42364;SDS011;28498;54.400;18.566;2023-01-19T05:20:55;15.23;;;6.43;;
42364;SDS011;28498;54.400;18.566;2023-01-19T05:23:22;14.70;;;6.40;;
42364;SDS011;28498;54.400;18.566;2023-01-19T05:25:49;13.32;;;6.32;;
42364;SDS011;28498;54.400;18.566;2023-01-19T05:28:16;15.60;;;6.60;;
42364;SDS011;28498;54.400;18.566;2023-01-19T05:30:43;14.40;;;6.45;;
42364;SDS011;28498;54.400;18.566;2023-01-19T05:33:10;13.18;;;6.40;;
42364;SDS011;28498;54.400;18.566;2023-01-19T05:35:37;13.13;;;5.82;;
42364;SDS011;28498;54.400;18.566;2023-01-19T05:38:04;13.05;;;6.47;;
42364;SDS011;28498;54.400;18.566;2023-01-19T05:40:31;12.65;;;5.90;;
42364;SDS011;28498;54.400;18.566;2023-01-19T05:42:58;16.02;;;7.28;;
42364;SDS011;28498;54.400;18.566;2023-01-19T05:45:27;16.10;;;6.43;;
42364;SDS011;28498;54.400;18.566;2023-01-19T05:47:54;12.43;;;6.85;;
42364;SDS011;28498;54.400;18.566;2023-01-19T05:50:21;13.02;;;6.50;;
42364;SDS011;28498;54.400;18.566;2023-01-19T05:52:48;13.85;;;5.97;;
42364;SDS011;28498;54.400;18.566;2023-01-19T05:55:19;16.67;;;8.35;;
42364;SDS011;28498;54.400;18.566;2023-01-19T05:57:46;15.23;;;6.93;;
42364;SDS011;28498;54.400;18.566;2023-01-19T06:00:13;16.92;;;7.88;;
42364;SDS011;28498;54.400;18.566;2023-01-19T06:02:41;17.55;;;7.53;;
42364;SDS011;28498;54.400;18.566;2023-01-19T06:05:08;21.48;;;8.23;;
42364;SDS011;28498;54.400;18.566;2023-01-19T06:07:36;16.83;;;6.85;;
42364;SDS011;28498;54.400;18.566;2023-01-19T06:10:03;15.27;;;6.70;;
42364;SDS011;28498;54.400;18.566;2023-01-19T06:12:30;20.13;;;8.35;;
42364;SDS011;28498;54.400;18.566;2023-01-19T06:14:57;17.13;;;7.88;;
42364;SDS011;28498;54.400;18.566;2023-01-19T06:17:24;15.18;;;7.82;;
42364;SDS011;28498;54.400;18.566;2023-01-19T06:19:51;21.33;;;8.38;;
42364;SDS011;28498;54.400;18.566;2023-01-19T06:22:18;17.85;;;7.80;;
42364;SDS011;28498;54.400;18.566;2023-01-19T06:24:45;16.15;;;7.25;;
42364;SDS011;28498;54.400;18.566;2023-01-19T06:27:12;15.23;;;6.88;;
42364;SDS011;28498;54.400;18.566;2023-01-19T06:29:39;14.57;;;6.97;;
42364;SDS011;28498;54.400;18.566;2023-01-19T06:32:06;17.15;;;7.57;;
42364;SDS011;28498;54.400;18.566;2023-01-19T06:34:33;16.30;;;7.50;;
42364;SDS011;28498;54.400;18.566;2023-01-19T06:37:00;15.77;;;7.22;;
42364;SDS011;28498;54.400;18.566;2023-01-19T06:39:27;18.42;;;7.63;;
42364;SDS011;28498;54.400;18.566;2023-01-19T06:41:54;18.95;;;9.20;;
42364;SDS011;28498;54.400;18.566;2023-01-19T06:44:21;20.88;;;8.57;;
42364;SDS011;28498;54.400;18.566;2023-01-19T06:46:48;14.00;;;7.40;;
42364;SDS011;28498;54.400;18.566;2023-01-19T06:49:15;13.80;;;6.97;;
42364;SDS011;28498;54.400;18.566;2023-01-19T06:51:42;16.20;;;7.20;;
42364;SDS011;28498;54.400;18.566;2023-01-19T06:54:09;15.23;;;7.82;;
42364;SDS011;28498;54.400;18.566;2023-01-19T06:56:36;20.70;;;8.77;;
42364;SDS011;28498;54.400;18.566;2023-01-19T06:59:03;16.13;;;7.70;;
42364;SDS011;28498;54.400;18.566;2023-01-19T07:01:30;16.38;;;7.40;;
42364;SDS011;28498;54.400;18.566;2023-01-19T07:03:58;19.38;;;8.23;;
42364;SDS011;28498;54.400;18.566;2023-01-19T07:06:25;20.33;;;8.70;;
42364;SDS011;28498;54.400;18.566;2023-01-19T07:08:52;18.55;;;8.18;;
42364;SDS011;28498;54.400;18.566;2023-01-19T07:11:20;17.10;;;7.82;;
42364;SDS011;28498;54.400;18.566;2023-01-19T07:13:57;17.60;;;8.82;;
42364;SDS011;28498;54.400;18.566;2023-01-19T07:16:24;18.55;;;9.45;;
42364;SDS011;28498;54.400;18.566;2023-01-19T07:18:52;20.25;;;9.63;;
42364;SDS011;28498;54.400;18.566;2023-01-19T07:21:19;19.95;;;8.70;;
42364;SDS011;28498;54.400;18.566;2023-01-19T07:23:49;19.48;;;8.65;;
42364;SDS011;28498;54.400;18.566;2023-01-19T07:26:17;24.00;;;11.23;;
42364;SDS011;28498;54.400;18.566;2023-01-19T07:28:47;22.92;;;10.10;;
42364;SDS011;28498;54.400;18.566;2023-01-19T07:31:14;25.45;;;10.63;;
42364;SDS011;28498;54.400;18.566;2023-01-19T07:33:41;27.77;;;11.27;;
42364;SDS011;28498;54.400;18.566;2023-01-19T07:36:09;26.08;;;13.02;;
42364;SDS011;28498;54.400;18.566;2023-01-19T07:38:36;28.38;;;13.35;;
42364;SDS011;28498;54.400;18.566;2023-01-19T07:41:03;28.55;;;11.98;;
42364;SDS011;28498;54.400;18.566;2023-01-19T07:43:33;23.85;;;12.52;;
42364;SDS011;28498;54.400;18.566;2023-01-19T07:46:01;26.48;;;12.18;;
42364;SDS011;28498;54.400;18.566;2023-01-19T07:48:29;29.33;;;13.23;;
42364;SDS011;28498;54.400;18.566;2023-01-19T07:50:59;25.75;;;14.07;;
42364;SDS011;28498;54.400;18.566;2023-01-19T07:53:38;23.38;;;10.38;;
42364;SDS011;28498;54.400;18.566;2023-01-19T07:56:07;22.23;;;11.23;;
42364;SDS011;28498;54.400;18.566;2023-01-19T07:58:35;23.48;;;10.48;;
42364;SDS011;28498;54.400;18.566;2023-01-19T08:01:09;22.02;;;10.48;;
42364;SDS011;28498;54.400;18.566;2023-01-19T08:03:37;28.92;;;11.15;;
42364;SDS011;28498;54.400;18.566;2023-01-19T08:06:05;24.25;;;11.43;;
42364;SDS011;28498;54.400;18.566;2023-01-19T08:08:33;20.85;;;10.30;;
42364;SDS011;28498;54.400;18.566;2023-01-19T08:11:00;22.08;;;9.95;;
42364;SDS011;28498;54.400;18.566;2023-01-19T08:13:27;19.02;;;9.15;;
42364;SDS011;28498;54.400;18.566;2023-01-19T08:15:54;18.80;;;9.50;;
42364;SDS011;28498;54.400;18.566;2023-01-19T08:18:21;25.67;;;10.38;;
42364;SDS011;28498;54.400;18.566;2023-01-19T08:20:48;23.38;;;10.57;;
42364;SDS011;28498;54.400;18.566;2023-01-19T08:23:15;20.27;;;9.82;;
42364;SDS011;28498;54.400;18.566;2023-01-19T08:25:43;21.38;;;9.63;;
42364;SDS011;28498;54.400;18.566;2023-01-19T08:28:13;17.70;;;9.98;;
42364;SDS011;28498;54.400;18.566;2023-01-19T08:30:41;17.50;;;9.02;;
42364;SDS011;28498;54.400;18.566;2023-01-19T08:33:13;16.60;;;8.80;;
42364;SDS011;28498;54.400;18.566;2023-01-19T08:35:41;16.75;;;8.60;;
42364;SDS011;28498;54.400;18.566;2023-01-19T08:38:14;18.77;;;8.98;;
42364;SDS011;28498;54.400;18.566;2023-01-19T08:40:42;20.40;;;9.55;;
42364;SDS011;28498;54.400;18.566;2023-01-19T08:43:10;23.48;;;10.38;;
42364;SDS011;28498;54.400;18.566;2023-01-19T08:45:39;18.48;;;9.77;;
42364;SDS011;28498;54.400;18.566;2023-01-19T08:48:11;19.80;;;10.50;;
42364;SDS011;28498;54.400;18.566;2023-01-19T08:50:39;19.75;;;9.75;;
42364;SDS011;28498;54.400;18.566;2023-01-19T08:53:06;21.60;;;9.65;;
42364;SDS011;28498;54.400;18.566;2023-01-19T08:55:34;20.52;;;10.63;;
42364;SDS011;28498;54.400;18.566;2023-01-19T08:58:02;17.40;;;9.48;;
42364;SDS011;28498;54.400;18.566;2023-01-19T09:00:30;18.65;;;9.73;;
42364;SDS011;28498;54.400;18.566;2023-01-19T09:03:07;25.75;;;11.00;;
42364;SDS011;28498;54.400;18.566;2023-01-19T09:05:37;23.95;;;10.88;;
42364;SDS011;28498;54.400;18.566;2023-01-19T09:08:08;21.83;;;10.27;;
42364;SDS011;28498;54.400;18.566;2023-01-19T09:10:37;15.15;;;8.95;;
42364;SDS011;28498;54.400;18.566;2023-01-19T09:13:10;16.80;;;8.50;;
42364;SDS011;28498;54.400;18.566;2023-01-19T09:15:38;18.98;;;9.50;;
42364;SDS011;28498;54.400;18.566;2023-01-19T09:18:07;17.65;;;8.80;;
42364;SDS011;28498;54.400;18.566;2023-01-19T09:20:39;22.80;;;9.63;;
42364;SDS011;28498;54.400;18.566;2023-01-19T09:23:08;16.67;;;9.13;;
42364;SDS011;28498;54.400;18.566;2023-01-19T09:25:39;19.33;;;8.43;;
42364;SDS011;28498;54.400;18.566;2023-01-19T09:28:08;23.63;;;9.20;;
42364;SDS011;28498;54.400;18.566;2023-01-19T09:30:37;15.60;;;8.70;;
42364;SDS011;28498;54.400;18.566;2023-01-19T09:33:06;17.92;;;8.15;;
42364;SDS011;28498;54.400;18.566;2023-01-19T09:35:36;18.88;;;7.80;;
42364;SDS011;28498;54.400;18.566;2023-01-19T09:38:04;16.48;;;8.73;;
42364;SDS011;28498;54.400;18.566;2023-01-19T09:40:56;16.92;;;7.90;;
42364;SDS011;28498;54.400;18.566;2023-01-19T09:43:43;16.35;;;8.13;;
42364;SDS011;28498;54.400;18.566;2023-01-19T09:46:15;18.48;;;8.32;;
42364;SDS011;28498;54.400;18.566;2023-01-19T09:48:52;17.73;;;8.70;;
42364;SDS011;28498;54.400;18.566;2023-01-19T09:51:23;17.95;;;8.30;;
42364;SDS011;28498;54.400;18.566;2023-01-19T09:53:53;16.23;;;8.98;;
42364;SDS011;28498;54.400;18.566;2023-01-19T09:56:33;15.93;;;8.27;;
42364;SDS011;28498;54.400;18.566;2023-01-19T09:59:00;16.60;;;8.18;;
42364;SDS011;28498;54.400;18.566;2023-01-19T10:01:49;15.52;;;8.98;;
42364;SDS011;28498;54.400;18.566;2023-01-19T10:04:31;19.70;;;8.68;;
42364;SDS011;28498;54.400;18.566;2023-01-19T10:07:24;19.67;;;9.57;;
42364;SDS011;28498;54.400;18.566;2023-01-19T10:12:42;13.15;;;8.02;;
42364;SDS011;28498;54.400;18.566;2023-01-19T10:15:41;14.40;;;7.45;;
42364;SDS011;28498;54.400;18.566;2023-01-19T10:18:25;13.70;;;7.35;;
42364;SDS011;28498;54.400;18.566;2023-01-19T10:21:20;14.75;;;7.22;;
42364;SDS011;28498;54.400;18.566;2023-01-19T10:24:00;19.95;;;8.02;;
42364;SDS011;28498;54.400;18.566;2023-01-19T10:26:33;16.48;;;7.63;;
42364;SDS011;28498;54.400;18.566;2023-01-19T10:29:06;14.07;;;6.93;;
42364;SDS011;28498;54.400;18.566;2023-01-19T10:31:39;15.55;;;6.50;;
42364;SDS011;28498;54.400;18.566;2023-01-19T10:34:12;12.88;;;5.60;;
42364;SDS011;28498;54.400;18.566;2023-01-19T10:36:49;14.50;;;6.13;;
42364;SDS011;28498;54.400;18.566;2023-01-19T10:39:25;10.25;;;5.45;;
42364;SDS011;28498;54.400;18.566;2023-01-19T10:41:52;10.98;;;5.95;;
42364;SDS011;28498;54.400;18.566;2023-01-19T10:44:23;9.18;;;4.63;;
42364;SDS011;28498;54.400;18.566;2023-01-19T10:46:56;11.60;;;5.05;;
42364;SDS011;28498;54.400;18.566;2023-01-19T10:52:05;13.63;;;5.53;;
42364;SDS011;28498;54.400;18.566;2023-01-19T10:54:34;12.48;;;5.55;;
42364;SDS011;28498;54.400;18.566;2023-01-19T10:57:04;8.93;;;5.20;;
42364;SDS011;28498;54.400;18.566;2023-01-19T11:06:00;9.82;;;5.07;;
42364;SDS011;28498;54.400;18.566;2023-01-19T11:08:47;8.10;;;3.53;;
42364;SDS011;28498;54.400;18.566;2023-01-19T11:11:20;6.95;;;2.83;;
42364;SDS011;28498;54.400;18.566;2023-01-19T11:14:02;8.93;;;3.55;;
42364;SDS011;28498;54.400;18.566;2023-01-19T11:16:34;6.78;;;3.53;;
42364;SDS011;28498;54.400;18.566;2023-01-19T11:19:03;5.47;;;2.65;;
42364;SDS011;28498;54.400;18.566;2023-01-19T11:21:31;6.05;;;2.67;;
42364;SDS011;28498;54.400;18.566;2023-01-19T11:24:02;9.25;;;3.35;;
42364;SDS011;28498;54.400;18.566;2023-01-19T11:26:41;7.32;;;2.97;;
42364;SDS011;28498;54.400;18.566;2023-01-19T11:29:14;7.25;;;3.50;;
42364;SDS011;28498;54.400;18.566;2023-01-19T11:31:50;9.52;;;4.00;;
42364;SDS011;28498;54.400;18.566;2023-01-19T11:36:55;10.80;;;3.70;;
42364;SDS011;28498;54.400;18.566;2023-01-19T11:39:28;10.00;;;4.30;;
42364;SDS011;28498;54.400;18.566;2023-01-19T11:42:01;12.27;;;8.32;;
42364;SDS011;28498;54.400;18.566;2023-01-19T11:44:32;9.30;;;4.53;;
42364;SDS011;28498;54.400;18.566;2023-01-19T11:47:02;9.55;;;4.13;;
42364;SDS011;28498;54.400;18.566;2023-01-19T11:50:05;14.00;;;4.95;;
42364;SDS011;28498;54.400;18.566;2023-01-19T11:56:32;8.05;;;4.00;;
42364;SDS011;28498;54.400;18.566;2023-01-19T11:59:00;9.13;;;4.25;;
42364;SDS011;28498;54.400;18.566;2023-01-19T12:01:29;8.05;;;4.03;;
42364;SDS011;28498;54.400;18.566;2023-01-19T12:04:12;9.75;;;5.07;;
42364;SDS011;28498;54.400;18.566;2023-01-19T12:06:43;9.75;;;4.60;;
42364;SDS011;28498;54.400;18.566;2023-01-19T12:09:32;6.90;;;3.70;;
42364;SDS011;28498;54.400;18.566;2023-01-19T12:12:03;9.40;;;4.93;;
42364;SDS011;28498;54.400;18.566;2023-01-19T12:17:49;9.45;;;4.43;;
42364;SDS011;28498;54.400;18.566;2023-01-19T12:20:25;11.57;;;5.07;;
42364;SDS011;28498;54.400;18.566;2023-01-19T12:25:52;11.15;;;4.45;;
42364;SDS011;28498;54.400;18.566;2023-01-19T12:28:31;7.75;;;4.07;;
42364;SDS011;28498;54.400;18.566;2023-01-19T12:31:02;12.30;;;4.80;;
42364;SDS011;28498;54.400;18.566;2023-01-19T12:33:36;10.57;;;4.97;;
42364;SDS011;28498;54.400;18.566;2023-01-19T12:46:42;9.98;;;4.35;;
42364;SDS011;28498;54.400;18.566;2023-01-19T12:49:19;12.80;;;4.60;;
42364;SDS011;28498;54.400;18.566;2023-01-19T12:51:49;8.73;;;4.70;;
42364;SDS011;28498;54.400;18.566;2023-01-19T12:56:59;10.35;;;5.70;;
42364;SDS011;28498;54.400;18.566;2023-01-19T12:59:31;12.20;;;5.60;;
42364;SDS011;28498;54.400;18.566;2023-01-19T13:13:20;13.45;;;5.40;;
42364;SDS011;28498;54.400;18.566;2023-01-19T13:15:48;10.02;;;5.25;;
42364;SDS011;28498;54.400;18.566;2023-01-19T13:18:31;9.98;;;5.43;;
42364;SDS011;28498;54.400;18.566;2023-01-19T13:21:05;13.52;;;6.60;;
42364;SDS011;28498;54.400;18.566;2023-01-19T13:26:15;9.13;;;5.10;;
42364;SDS011;28498;54.400;18.566;2023-01-19T13:28:44;11.40;;;6.40;;
42364;SDS011;28498;54.400;18.566;2023-01-19T13:31:16;11.43;;;6.50;;
42364;SDS011;28498;54.400;18.566;2023-01-19T13:36:53;13.45;;;7.95;;
42364;SDS011;28498;54.400;18.566;2023-01-19T13:39:16;15.13;;;7.50;;
42364;SDS011;28498;54.400;18.566;2023-01-19T13:41:44;12.57;;;5.93;;
42364;SDS011;28498;54.400;18.566;2023-01-19T13:44:25;13.75;;;6.13;;
42364;SDS011;28498;54.400;18.566;2023-01-19T13:46:55;11.07;;;5.82;;
42364;SDS011;28498;54.400;18.566;2023-01-19T13:49:26;12.73;;;6.28;;
42364;SDS011;28498;54.400;18.566;2023-01-19T13:52:11;11.02;;;5.57;;
42364;SDS011;28498;54.400;18.566;2023-01-19T13:54:55;10.25;;;5.70;;
42364;SDS011;28498;54.400;18.566;2023-01-19T13:57:49;11.18;;;5.75;;
42364;SDS011;28498;54.400;18.566;2023-01-19T14:05:37;14.23;;;6.35;;
42364;SDS011;28498;54.400;18.566;2023-01-19T14:10:42;10.05;;;6.07;;
42364;SDS011;28498;54.400;18.566;2023-01-19T14:13:28;11.25;;;6.80;;
42364;SDS011;28498;54.400;18.566;2023-01-19T14:16:04;16.85;;;7.22;;
42364;SDS011;28498;54.400;18.566;2023-01-19T14:18:33;15.63;;;7.18;;
42364;SDS011;28498;54.400;18.566;2023-01-19T14:21:05;15.40;;;7.18;;
42364;SDS011;28498;54.400;18.566;2023-01-19T14:26:04;15.75;;;7.72;;
42364;SDS011;28498;54.400;18.566;2023-01-19T14:31:19;16.90;;;8.75;;
42364;SDS011;28498;54.400;18.566;2023-01-19T14:33:48;18.58;;;8.73;;
42364;SDS011;28498;54.400;18.566;2023-01-19T14:36:27;18.38;;;8.75;;
42364;SDS011;28498;54.400;18.566;2023-01-19T14:39:04;23.63;;;10.63;;
42364;SDS011;28498;54.400;18.566;2023-01-19T14:41:48;19.73;;;9.43;;
42364;SDS011;28498;54.400;18.566;2023-01-19T14:47:05;22.15;;;9.93;;
42364;SDS011;28498;54.400;18.566;2023-01-19T14:49:46;20.60;;;9.73;;
42364;SDS011;28498;54.400;18.566;2023-01-19T14:52:21;15.73;;;8.93;;
42364;SDS011;28498;54.400;18.566;2023-01-19T14:54:52;22.02;;;11.05;;
42364;SDS011;28498;54.400;18.566;2023-01-19T14:57:21;21.13;;;11.75;;
42364;SDS011;28498;54.400;18.566;2023-01-19T14:59:48;25.88;;;10.18;;
42364;SDS011;28498;54.400;18.566;2023-01-19T15:02:15;20.75;;;11.63;;
42364;SDS011;28498;54.400;18.566;2023-01-19T15:04:46;17.67;;;10.40;;
42364;SDS011;28498;54.400;18.566;2023-01-19T15:07:17;24.75;;;13.43;;
42364;SDS011;28498;54.400;18.566;2023-01-19T15:09:47;21.10;;;11.20;;
42364;SDS011;28498;54.400;18.566;2023-01-19T15:12:15;23.52;;;11.40;;
42364;SDS011;28498;54.400;18.566;2023-01-19T15:14:44;22.27;;;11.40;;
42364;SDS011;28498;54.400;18.566;2023-01-19T15:17:13;21.25;;;10.70;;
42364;SDS011;28498;54.400;18.566;2023-01-19T15:19:42;17.80;;;9.57;;
42364;SDS011;28498;54.400;18.566;2023-01-19T15:22:10;20.00;;;10.65;;
42364;SDS011;28498;54.400;18.566;2023-01-19T15:24:38;22.10;;;10.27;;
42364;SDS011;28498;54.400;18.566;2023-01-19T15:27:09;24.95;;;11.48;;
42364;SDS011;28498;54.400;18.566;2023-01-19T15:29:37;24.70;;;11.55;;
42364;SDS011;28498;54.400;18.566;2023-01-19T15:32:11;35.05;;;13.25;;
42364;SDS011;28498;54.400;18.566;2023-01-19T15:34:40;26.92;;;13.55;;
42364;SDS011;28498;54.400;18.566;2023-01-19T15:37:07;23.23;;;12.85;;
42364;SDS011;28498;54.400;18.566;2023-01-19T15:39:34;25.48;;;14.63;;
42364;SDS011;28498;54.400;18.566;2023-01-19T15:42:01;28.63;;;14.07;;
42364;SDS011;28498;54.400;18.566;2023-01-19T15:44:28;23.35;;;12.65;;
42364;SDS011;28498;54.400;18.566;2023-01-19T15:46:55;27.83;;;13.55;;
42364;SDS011;28498;54.400;18.566;2023-01-19T15:49:22;26.98;;;13.63;;
42364;SDS011;28498;54.400;18.566;2023-01-19T15:51:50;27.80;;;14.13;;
42364;SDS011;28498;54.400;18.566;2023-01-19T15:54:17;27.75;;;13.82;;
42364;SDS011;28498;54.400;18.566;2023-01-19T15:56:44;31.33;;;15.52;;
42364;SDS011;28498;54.400;18.566;2023-01-19T15:59:11;32.60;;;15.93;;
42364;SDS011;28498;54.400;18.566;2023-01-19T16:01:38;29.30;;;15.27;;
42364;SDS011;28498;54.400;18.566;2023-01-19T16:04:06;29.30;;;15.00;;
42364;SDS011;28498;54.400;18.566;2023-01-19T16:06:36;28.92;;;14.30;;
42364;SDS011;28498;54.400;18.566;2023-01-19T16:09:03;37.85;;;15.18;;